createdAt,value
2023-09-15T16:39:46.751Z,25.40
2023-09-15T16:42:14.801Z,24.90
2023-09-15T16:44:42.934Z,24.70
2023-09-15T16:47:13.496Z,24.60
2023-09-15T16:49:41.794Z,24.50
2023-09-15T16:52:09.866Z,24.40
2023-09-15T16:54:38.078Z,24.50
2023-09-15T16:57:07.984Z,24.10
2023-09-15T16:59:36.327Z,24.00
2023-09-15T17:02:09.276Z,23.90
2023-09-15T17:04:38.088Z,23.80
2023-09-15T17:07:06.440Z,23.70
2023-09-15T17:09:35.901Z,23.70
2023-09-15T17:12:04.128Z,23.60
2023-09-15T17:14:33.843Z,23.60
2023-09-15T17:17:02.083Z,23.50
2023-09-15T17:19:30.368Z,23.40
2023-09-15T17:22:05.307Z,23.30
2023-09-15T17:24:46.106Z,23.20
2023-09-15T17:27:19.188Z,23.20
2023-09-15T17:30:07.723Z,23.20
2023-09-15T17:32:48.841Z,23.10
2023-09-15T17:35:21.128Z,22.90
2023-09-15T17:38:32.270Z,22.90
2023-09-15T17:41:17.340Z,22.90
2023-09-15T17:43:45.540Z,22.80
2023-09-15T17:46:15.151Z,22.70
2023-09-15T18:14:51.940Z,22.00
2023-09-15T18:17:21.425Z,22.00
2023-09-15T18:19:56.419Z,22.10
2023-09-15T18:22:24.662Z,22.00
2023-09-15T18:24:52.832Z,22.00
2023-09-15T18:27:21.067Z,21.90
2023-09-15T18:29:53.298Z,21.90
2023-09-15T18:32:22.959Z,21.90
2023-09-15T18:34:59.707Z,21.80
2023-09-15T18:37:27.980Z,21.90
2023-09-15T18:39:57.047Z,21.80
2023-09-15T18:42:25.361Z,21.80
2023-09-15T18:44:53.534Z,21.70
2023-09-15T18:47:24.638Z,21.70
2023-09-15T18:49:53.711Z,21.70
2023-09-15T18:52:22.156Z,21.70
2023-09-15T18:54:57.797Z,21.60
2023-09-15T18:57:35.057Z,21.60
2023-09-15T19:00:07.560Z,21.60
2023-09-15T19:02:45.836Z,21.50
2023-09-15T19:05:16.075Z,21.50
2023-09-15T19:07:44.188Z,21.50
2023-09-15T19:10:28.551Z,21.50
2023-09-15T19:13:32.293Z,21.80
2023-09-15T19:16:11.352Z,21.40
2023-09-15T19:18:47.655Z,21.40
2023-09-15T19:21:27.907Z,21.40
2023-09-15T19:23:57.388Z,21.40
2023-09-15T19:30:15.142Z,21.30
2023-09-15T19:32:59.742Z,21.00
2023-09-15T19:35:53.167Z,21.10
2023-09-15T19:42:23.404Z,21.40
2023-09-15T19:44:56.246Z,21.20
2023-09-15T19:47:47.649Z,21.40
2023-09-15T19:50:15.730Z,21.10
2023-09-15T19:52:46.664Z,21.10
